РУС

ENG

 
  Pireps - S7
 

Рейс SBI1016

  • Выполнял: Anton Molchanov
  • Аэропорт отправления: Pulkovo Airport (ULLI)
  • Аэропорт назначения: Domodedovo Airport (UUDD)
  • Тип ВС: B737-800 (VP-BQF)
  • Время полёта: 01.22
  • Дата полёта: 05.09.2020
  • Маршрут: SUGIN R904 KANET T576 NAMIN
  • Статус: Одобрен

Детали полёта
Gross Revenue:
(120 load / $ 150.00 per unit
$ 18, 000.00
Fuel Cost:
(3447 fuel used @ 5.1 / unit)
$ 17, 579.70


Дополнительная информация о полёте:

Лог

Aircraft Used in flight is PMDG 737-800NGX - S7 Airlines New VP-BDG
12:43 Boarding
12:43 Navigation Lights ON at 90 AGL
12:43 Beacon Lights ON at 90 AGL
12:43 Brakes are On
12:46 Taxi Lights ON at 90 AGL
12:47 Brakes are Released
12:47 Engine 2 Started
12:49 Engine 1 Started
12:49 Brakes are On
12:51Flaps 1 Selected at 90ft and 5kts
12:51Flaps 2 Selected at 90ft and 7kts
12:51Flaps 3 Selected at 90ft and 7kts
12:52 Brakes are Released
12:56 Landing Lights ON at 90 AGL
13:00 You Took off @ 165 Knots and Flaps at Position 3
Departure Weather
ULLI 050530Z 21004MPS 170V240 CAVOK 15/12 Q1013 R28R/090060 NOSIG
13:00 Landing Gear Up @ 184 Knots and 180 Feet
13:00 Taxi Lights OFF at 200 AGL
13:00Flaps 2 Selected at 1360ft and 184kts
13:00Flaps 1 Selected at 1620ft and 186kts
13:02Flaps Retracted at 5360ft and 207kts
13:07 Below 10000 feet you are not allowed to go over 250 knots
13:08 Landing Lights OFF at 10070 AGL
13:21 TOC Reached
13:54 Landing Lights ON at 8340 AGL
13:59Flaps 1 Selected at 3610ft and 205kts
13:59Flaps 2 Selected at 3530ft and 196kts
13:59Flaps 3 Selected at 3480ft and 194kts
13:59Flaps 4 Selected at 3440ft and 191kts
14:00 Landing Gear Down @ 162 Knots and 3170 Feet
14:01Flaps 5 Selected at 3140ft and 162kts
14:01Flaps 6 Selected at 3080ft and 162kts
14:01Flaps 7 Selected at 2610ft and 149kts
14:04 You Landed @ 127 Knots and with -150 Vertical Speed
Arrival Weather
UUDD 050530Z 16005MPS CAVOK 15/07 Q1020 R88/CLRD60 NOSIG
14:05 Landing Lights OFF at 590 AGL
14:05 Brakes are On
Pirep logged with S7 Tracking 1.0.0.13


!!! Посадочные фары не выключены при наборе высоты с 5000 ft. до 10 000 ft.: -5%


Общая оценка полета : 95%




Route Map



 
 
   
 
Новости

03.09.2020 - Полеты в MFS 2020

Спешим сообщить вам, что теперь наш S7 Pad поддерживается для полетов в новом симуляторе MFS 2020. В разделе Загрузки вы найдете FSUIPC7.rar
Инструкция для запуска прилагается!

   
 
Авторизация






Регистрация

Восстановить пароль?

Мы в соц. сетях

      



   
 





   
 


   
 


Яндекс.Метрика

www.va-s7.ru 2011-2020
Все права защищены.



Минуточку внимания!
Сайт va-s7.ru не является коммерческим проектом. Мы не имеем отношения к торговым маркам "S7" и "Globus" и их представителям.
Эмблемы на сайте являются собственностью соответствующих компаний.

аэронавигационная метеорологическая и любая другая информация с данного ресурса ни в коем случае не должна использоваться для реальных полетов